Terminal Aerodrome Forecast
Issued by NWS

Home | Current Version | Previous Version | Text Only | Print | Product List | Glossary Off
Versions: 1 2 3 4 5 6 7 8 9 10 11 12 13 14 15 16 17 18 19 20 21 22 23 24

000
FTUS43 KICT 161137
TAFSLN
TAF
KSLN 161137Z 1612/1712 34017KT P6SM OVC022
     FM161500 34017G22KT P6SM SCT025
     FM161800 34009KT P6SM SCT030
     FM162300 36005KT P6SM BKN250=

USA.gov is the U.S. government's official web portal to all federal, state and local government web resources and services.